Adolphus, Kentucky
Current Conditions -  °F | °C
As of 3:53 AM on Saturday 01 Nov 2014 (Local Time) from KBWG Reporting Station
Overcast Overcast  
Wind Chill: 32°   Ceiling: 3000
Heat Index: 39°   Visibility: 10mi
Dew Point: 27°   Wind: 12mph
Humidity: 62%   Direction: 320°NW
Pressure: 30.17"   Gusts: 20mph
Location:  36.65°N, 86.26°W
Report Text: KBWG 010853Z AUTO 32010G17KT 10SM OVC030 04/M03 A3017 RMK AO2 SLP217 60000 T00391028 51010
Loading
Personal Weather Stations






























Interactive Weather Map
Tropical Storm Tracking
New forecast layout! Learn more

10-Day Weather Forecast

Advertisements
Track Severe Weather on mobile